createdAt,value
2018-12-03T00:01:12.597Z,4.13
2018-12-03T00:04:22.810Z,3.33
2018-12-03T00:07:25.861Z,3.30
2018-12-03T00:10:28.918Z,4.00
2018-12-03T00:13:31.966Z,6.27
2018-12-03T00:16:35.031Z,4.00
2018-12-03T00:19:38.102Z,4.20
2018-12-03T00:22:41.202Z,3.87
2018-12-03T00:25:44.255Z,4.47
2018-12-03T00:28:47.291Z,5.77
2018-12-03T00:31:50.459Z,3.53
2018-12-03T00:34:53.547Z,3.97
2018-12-03T00:37:57.402Z,4.05
2018-12-03T00:41:00.535Z,4.27
2018-12-03T00:44:03.618Z,4.67
2018-12-03T00:47:06.700Z,4.07
2018-12-03T00:50:09.819Z,4.20
2018-12-03T00:53:12.901Z,4.10
2018-12-03T00:56:15.977Z,3.10
2018-12-03T00:59:19.030Z,3.73
2018-12-03T01:02:25.601Z,3.77
2018-12-03T01:05:28.686Z,4.43
2018-12-03T01:08:31.761Z,3.13
2018-12-03T01:11:34.912Z,2.70
2018-12-03T01:14:38.019Z,3.63
2018-12-03T01:17:41.077Z,3.50
2018-12-03T01:20:44.122Z,3.10
2018-12-03T01:23:47.201Z,3.63
2018-12-03T01:26:50.257Z,3.77
2018-12-03T01:29:53.306Z,3.37
2018-12-03T01:32:57.357Z,2.92
2018-12-03T01:36:00.426Z,3.03
2018-12-03T01:39:03.979Z,2.80
2018-12-03T01:42:07.127Z,4.20
2018-12-03T01:45:11.524Z,3.20
2018-12-03T01:48:14.606Z,3.57
2018-12-03T01:51:17.691Z,2.23
2018-12-03T01:54:20.722Z,2.97
2018-12-03T01:57:23.777Z,3.50
2018-12-03T02:00:26.818Z,4.10
2018-12-03T02:03:29.983Z,2.80
2018-12-03T02:06:33.094Z,3.43
2018-12-03T02:09:36.225Z,3.30
2018-12-03T02:12:39.317Z,3.27
2018-12-03T02:15:42.400Z,3.33
2018-12-03T02:18:45.461Z,2.63
2018-12-03T02:21:48.537Z,3.83
2018-12-03T02:24:51.597Z,2.60
2018-12-03T02:27:54.694Z,3.13
2018-12-03T02:30:57.786Z,3.77
2018-12-03T02:34:00.838Z,3.63
2018-12-03T02:37:03.879Z,3.37
2018-12-03T02:40:08.806Z,3.30
2018-12-03T02:43:11.870Z,2.90
2018-12-03T02:46:14.956Z,2.73
2018-12-03T02:49:18.038Z,2.53
2018-12-03T02:52:21.110Z,3.00
2018-12-03T02:55:24.286Z,4.03
2018-12-03T02:58:27.377Z,2.67
2018-12-03T03:01:30.549Z,2.47
2018-12-03T03:04:33.618Z,3.23
2018-12-03T03:07:36.679Z,3.83
2018-12-03T03:10:39.723Z,2.73
2018-12-03T03:13:42.816Z,2.83
2018-12-03T03:16:45.941Z,2.90
2018-12-03T03:19:49.010Z,4.67
2018-12-03T03:22:52.155Z,3.43
2018-12-03T03:25:55.280Z,2.53
2018-12-03T03:28:58.382Z,2.30
2018-12-03T03:32:01.516Z,2.57
2018-12-03T03:35:04.882Z,1.77
2018-12-03T03:38:07.954Z,2.43
2018-12-03T03:41:11.019Z,2.37
2018-12-03T03:44:14.067Z,2.23
2018-12-03T03:47:17.153Z,2.03
2018-12-03T03:50:20.215Z,1.97
2018-12-03T03:53:23.326Z,2.87
2018-12-03T03:56:26.387Z,2.03
2018-12-03T03:59:29.431Z,2.63
2018-12-03T04:02:32.488Z,2.57
2018-12-03T04:05:35.549Z,1.97
2018-12-03T04:08:38.582Z,2.37
2018-12-03T04:11:41.682Z,2.27
2018-12-03T04:14:44.763Z,2.07
2018-12-03T04:17:47.820Z,2.43
2018-12-03T04:20:50.878Z,2.83
2018-12-03T04:23:53.938Z,2.10
2018-12-03T04:26:57.000Z,3.07
2018-12-03T04:30:00.042Z,1.80
2018-12-03T04:33:03.126Z,2.37
2018-12-03T04:36:06.198Z,2.63
2018-12-03T04:39:09.331Z,2.03
2018-12-03T04:42:12.389Z,1.83
2018-12-03T04:45:16.598Z,2.23
2018-12-03T04:48:19.682Z,1.57
2018-12-03T04:51:23.793Z,2.17
2018-12-03T04:54:26.834Z,2.10
2018-12-03T04:57:29.934Z,2.27
2018-12-03T05:00:33.057Z,1.93
2018-12-03T05:03:36.120Z,1.90
2018-12-03T05:06:39.278Z,2.33
2018-12-03T05:09:42.378Z,1.83
2018-12-03T05:12:46.883Z,2.07
2018-12-03T05:15:49.979Z,1.97
2018-12-03T05:18:53.054Z,2.17
2018-12-03T05:21:56.197Z,2.40
2018-12-03T05:24:59.251Z,2.20
2018-12-03T05:28:02.342Z,1.40
2018-12-03T05:31:05.640Z,1.10
2018-12-03T05:34:08.684Z,1.77
2018-12-03T05:37:11.759Z,2.30
2018-12-03T05:40:18.158Z,2.07
2018-12-03T05:43:23.777Z,1.90
2018-12-03T05:46:26.981Z,1.93
2018-12-03T05:49:30.066Z,1.87
2018-12-03T05:52:33.122Z,2.27
2018-12-03T05:55:36.262Z,2.37
2018-12-03T05:58:39.370Z,1.20
2018-12-03T06:01:42.421Z,1.30
2018-12-03T06:04:45.482Z,1.97
2018-12-03T06:07:48.677Z,1.20
2018-12-03T06:10:51.858Z,1.40
2018-12-03T06:13:55.044Z,1.50
2018-12-03T06:16:58.115Z,1.47
2018-12-03T06:20:01.183Z,1.60
2018-12-03T06:23:04.311Z,1.60
2018-12-03T06:26:07.398Z,2.43
2018-12-03T06:29:10.472Z,1.47
2018-12-03T06:32:13.578Z,1.70
2018-12-03T06:35:17.217Z,2.30
2018-12-03T06:38:20.304Z,2.03
2018-12-03T06:41:23.383Z,1.23
2018-12-03T06:44:26.430Z,2.27
2018-12-03T06:47:29.495Z,1.70
2018-12-03T06:50:32.644Z,2.20
2018-12-03T06:53:35.689Z,1.90
2018-12-03T06:56:38.757Z,1.90
2018-12-03T06:59:41.841Z,2.10
2018-12-03T07:02:45.019Z,3.20
2018-12-03T07:05:48.808Z,2.67
2018-12-03T07:08:51.878Z,1.87
2018-12-03T07:11:55.048Z,2.73
2018-12-03T07:14:58.109Z,1.90
2018-12-03T07:18:01.178Z,2.80
2018-12-03T07:21:04.317Z,4.13
2018-12-03T07:24:07.373Z,2.33
2018-12-03T07:27:10.461Z,1.97
2018-12-03T07:30:18.810Z,2.07
2018-12-03T07:33:21.867Z,2.30
2018-12-03T07:36:24.978Z,5.03
2018-12-03T07:39:28.082Z,2.57
2018-12-03T07:42:31.146Z,1.50
2018-12-03T07:45:34.194Z,7.60
2018-12-03T07:48:37.245Z,1.70
2018-12-03T07:51:40.322Z,4.90
2018-12-03T07:54:43.396Z,2.37
2018-12-03T07:57:49.463Z,4.10
2018-12-03T08:00:55.091Z,1.70
2018-12-03T08:03:58.350Z,2.50
2018-12-03T08:07:01.413Z,2.50
2018-12-03T08:10:06.985Z,2.07
2018-12-03T08:13:11.531Z,2.77
2018-12-03T08:16:14.582Z,2.60
2018-12-03T08:19:17.665Z,2.17
2018-12-03T08:22:20.765Z,2.97
2018-12-03T08:25:24.598Z,1.50
2018-12-03T08:28:27.718Z,2.00
2018-12-03T08:31:30.806Z,2.80
2018-12-03T08:34:33.946Z,4.13
2018-12-03T08:37:37.027Z,3.07
2018-12-03T08:40:40.081Z,2.73
2018-12-03T08:43:43.155Z,2.53
2018-12-03T08:46:46.238Z,2.97
2018-12-03T08:49:49.315Z,2.17
2018-12-03T08:52:52.543Z,1.47
2018-12-03T08:55:55.623Z,2.20
2018-12-03T08:58:58.713Z,3.27
2018-12-03T09:02:02.854Z,2.83
2018-12-03T09:05:07.335Z,3.03
2018-12-03T09:08:11.448Z,2.93
2018-12-03T09:11:14.497Z,2.60
2018-12-03T09:14:18.828Z,3.43
2018-12-03T09:17:21.887Z,3.63
2018-12-03T09:20:24.991Z,4.63
2018-12-03T09:23:28.225Z,5.00
2018-12-03T09:26:31.769Z,3.30
2018-12-03T09:29:35.302Z,2.87
2018-12-03T09:32:38.884Z,4.40
2018-12-03T09:35:42.200Z,3.60
2018-12-03T09:39:20.537Z,2.60
2018-12-03T09:42:29.194Z,2.77
2018-12-03T09:45:32.427Z,5.10
2018-12-03T09:48:35.658Z,3.60
2018-12-03T09:51:38.997Z,5.23
2018-12-03T09:54:42.365Z,2.90
2018-12-03T09:57:55.794Z,5.27
2018-12-03T10:00:59.168Z,5.17
2018-12-03T10:04:02.979Z,7.83
2018-12-03T10:07:06.437Z,4.37
2018-12-03T10:10:15.411Z,2.63
2018-12-03T10:13:18.671Z,4.07
2018-12-03T10:16:22.304Z,4.90
2018-12-03T10:19:25.393Z,4.20
2018-12-03T10:22:28.449Z,5.13
2018-12-03T10:25:31.543Z,3.70
2018-12-03T10:28:34.625Z,5.47
2018-12-03T10:31:37.709Z,4.30
2018-12-03T10:34:40.749Z,5.87
2018-12-03T10:37:43.855Z,6.30
2018-12-03T10:40:51.038Z,3.97
2018-12-03T10:43:56.125Z,2.77
2018-12-03T10:46:59.230Z,6.20
2018-12-03T10:50:02.280Z,5.63
2018-12-03T10:53:05.746Z,6.97
2018-12-03T10:56:08.840Z,6.00
2018-12-03T10:59:11.915Z,4.50
2018-12-03T11:02:20.273Z,3.90
2018-12-03T11:05:31.497Z,4.67
2018-12-03T11:08:34.595Z,4.73
2018-12-03T11:11:37.707Z,4.50
2018-12-03T11:14:41.886Z,6.27
2018-12-03T11:17:44.950Z,5.37
2018-12-03T11:20:48.007Z,4.17
2018-12-03T11:23:52.066Z,6.03
2018-12-03T11:26:57.490Z,4.17
2018-12-03T11:30:00.563Z,3.53
2018-12-03T11:33:03.635Z,8.30
2018-12-03T11:36:07.085Z,6.93
2018-12-03T11:40:23.738Z,6.33
2018-12-03T11:43:28.387Z,6.43
2018-12-03T11:46:31.490Z,5.87
2018-12-03T11:49:34.605Z,3.67
2018-12-03T11:52:37.669Z,7.90
2018-12-03T11:55:40.699Z,3.60
2018-12-03T11:58:43.785Z,3.10
2018-12-03T12:01:46.843Z,6.57
2018-12-03T12:04:49.894Z,4.73
2018-12-03T12:07:52.960Z,7.50
2018-12-03T12:10:57.700Z,6.50
2018-12-03T12:14:37.419Z,4.73
2018-12-03T12:17:40.649Z,4.40
2018-12-03T12:20:43.811Z,5.57
2018-12-03T12:23:46.903Z,4.67
2018-12-03T12:26:51.342Z,7.17
2018-12-03T12:29:54.423Z,6.10
2018-12-03T12:32:57.583Z,5.33
2018-12-03T12:36:00.802Z,6.53
2018-12-03T12:39:08.663Z,6.00
2018-12-03T12:42:11.814Z,5.57
2018-12-03T12:45:17.900Z,6.07
2018-12-03T12:48:21.006Z,4.83
2018-12-03T12:51:24.272Z,4.17
2018-12-03T12:54:27.406Z,5.17
2018-12-03T12:57:30.595Z,6.60
2018-12-03T13:00:33.792Z,3.90
2018-12-03T13:03:36.942Z,6.27
2018-12-03T13:06:40.128Z,5.93
2018-12-03T13:09:43.262Z,5.17
2018-12-03T13:12:49.251Z,6.43
2018-12-03T13:15:52.377Z,6.70
2018-12-03T13:18:55.415Z,6.47
2018-12-03T13:21:58.519Z,6.53
2018-12-03T13:25:01.670Z,6.20
2018-12-03T13:28:04.793Z,5.13
2018-12-03T13:31:08.130Z,4.93
2018-12-03T13:34:11.366Z,5.70
2018-12-03T13:37:14.461Z,4.43
2018-12-03T13:40:18.329Z,5.27
2018-12-03T13:43:21.599Z,5.43
2018-12-03T13:46:24.765Z,5.90
2018-12-03T13:49:27.843Z,5.10
2018-12-03T13:52:30.973Z,5.50
2018-12-03T13:55:34.063Z,6.27
2018-12-03T13:58:37.271Z,4.77
2018-12-03T14:01:40.501Z,5.60
2018-12-03T14:04:43.552Z,5.30
2018-12-03T14:07:50.975Z,6.83
2018-12-03T14:11:02.843Z,7.47
2018-12-03T14:14:22.613Z,4.43
2018-12-03T14:18:33.291Z,6.73
2018-12-03T14:21:40.297Z,4.93
2018-12-03T14:24:43.544Z,5.57
2018-12-03T14:27:46.739Z,6.13
2018-12-03T14:30:50.005Z,5.33
2018-12-03T14:33:53.193Z,7.77
2018-12-03T14:36:56.522Z,5.57
2018-12-03T14:39:59.694Z,6.33
2018-12-03T14:43:03.697Z,4.93
2018-12-03T14:46:06.918Z,3.30
2018-12-03T14:49:09.995Z,5.60
2018-12-03T14:52:13.404Z,4.93
2018-12-03T14:55:16.557Z,6.27
2018-12-03T14:58:19.714Z,5.17
2018-12-03T15:01:23.233Z,5.77
2018-12-03T15:04:26.430Z,4.50
2018-12-03T15:07:29.617Z,4.73
2018-12-03T15:10:33.590Z,5.87
2018-12-03T15:13:36.804Z,5.60
2018-12-03T15:16:40.062Z,5.23
2018-12-03T15:19:43.278Z,5.00
2018-12-03T15:22:46.493Z,4.30
2018-12-03T15:25:49.762Z,5.23
2018-12-03T15:28:52.983Z,5.57
2018-12-03T15:32:06.237Z,4.07
2018-12-03T15:35:13.228Z,5.37
2018-12-03T15:38:16.654Z,3.70
2018-12-03T15:41:19.767Z,6.23
2018-12-03T15:44:28.895Z,7.57
2018-12-03T15:47:34.822Z,6.53
2018-12-03T15:50:45.643Z,5.27
2018-12-03T15:53:51.558Z,6.13
2018-12-03T15:56:59.674Z,3.67
2018-12-03T16:00:03.247Z,6.63
2018-12-03T16:03:06.414Z,5.50
2018-12-03T16:06:09.530Z,5.70
2018-12-03T16:09:13.672Z,11.10
2018-12-03T16:12:16.885Z,6.57
2018-12-03T16:15:20.108Z,6.93
2018-12-03T16:18:23.337Z,8.10
2018-12-03T16:21:26.515Z,6.57
2018-12-03T16:24:29.661Z,5.13
2018-12-03T16:27:32.782Z,5.97
2018-12-03T16:30:35.880Z,8.17
2018-12-03T16:33:39.067Z,6.95
2018-12-03T16:36:42.287Z,7.57
2018-12-03T16:39:45.382Z,6.50
2018-12-03T16:42:48.532Z,8.17
2018-12-03T16:45:51.731Z,6.33
2018-12-03T16:48:54.859Z,6.83
2018-12-03T16:51:58.036Z,6.80
2018-12-03T16:55:01.249Z,8.45
2018-12-03T16:58:04.589Z,7.13
2018-12-03T17:01:07.831Z,10.07
2018-12-03T17:04:13.591Z,6.90
2018-12-03T17:07:16.895Z,9.73
2018-12-03T17:10:20.226Z,7.80
2018-12-03T17:13:23.362Z,6.17
2018-12-03T17:16:26.579Z,6.53
2018-12-03T17:19:29.695Z,7.87
2018-12-03T17:22:37.066Z,8.50
2018-12-03T17:25:40.317Z,7.50
2018-12-03T17:28:43.472Z,10.13
2018-12-03T17:31:46.634Z,7.60
2018-12-03T17:34:49.903Z,6.77
2018-12-03T17:37:53.137Z,9.50
2018-12-03T17:40:56.467Z,8.60
2018-12-03T17:43:59.700Z,8.53
2018-12-03T17:47:03.096Z,9.90
2018-12-03T17:50:06.746Z,8.77
2018-12-03T17:53:09.834Z,9.77
2018-12-03T17:56:13.086Z,10.33
2018-12-03T17:59:16.274Z,9.03
2018-12-03T18:02:19.358Z,11.00
2018-12-03T18:05:22.472Z,9.17
2018-12-03T18:08:26.178Z,9.60
2018-12-03T18:11:29.444Z,13.07
2018-12-03T18:14:32.535Z,9.60
2018-12-03T18:17:35.671Z,10.00
2018-12-03T18:20:39.086Z,8.23
2018-12-03T18:23:42.213Z,10.87
2018-12-03T18:26:45.639Z,9.47
2018-12-03T18:29:48.838Z,11.57
2018-12-03T18:32:51.985Z,8.25
2018-12-03T18:35:55.202Z,9.97
2018-12-03T18:38:58.307Z,10.47
2018-12-03T18:42:01.604Z,9.70
2018-12-03T18:45:06.677Z,9.87
2018-12-03T18:48:11.647Z,10.17
2018-12-03T18:51:14.935Z,9.87
2018-12-03T18:54:18.142Z,12.97
2018-12-03T18:57:21.309Z,14.17
2018-12-03T19:00:24.509Z,14.17
2018-12-03T19:03:27.671Z,10.57
2018-12-03T19:06:31.100Z,12.27
2018-12-03T19:09:34.397Z,9.50
2018-12-03T19:12:37.659Z,11.63
2018-12-03T19:15:40.972Z,11.07
2018-12-03T19:18:44.183Z,7.53
2018-12-03T19:21:47.902Z,13.90
2018-12-03T19:24:51.074Z,12.23
2018-12-03T19:27:54.338Z,11.77
2018-12-03T19:30:57.428Z,15.97
2018-12-03T19:34:00.654Z,11.73
2018-12-03T19:37:03.873Z,11.00
2018-12-03T19:40:07.686Z,11.23
2018-12-03T19:43:10.942Z,14.60
2018-12-03T19:46:14.164Z,11.97
2018-12-03T19:49:18.042Z,13.23
2018-12-03T19:52:21.394Z,12.40
2018-12-03T19:55:24.649Z,11.47
2018-12-03T19:58:31.019Z,10.93
2018-12-03T20:01:34.189Z,13.10
2018-12-03T20:04:42.781Z,13.53
2018-12-03T20:07:46.088Z,11.00
2018-12-03T20:10:49.250Z,13.70
2018-12-03T20:13:52.390Z,10.17
2018-12-03T20:16:56.255Z,10.00
2018-12-03T20:19:59.626Z,9.60
2018-12-03T20:23:07.250Z,11.43
2018-12-03T20:26:15.403Z,9.63
2018-12-03T20:29:30.683Z,13.33
2018-12-03T20:32:43.179Z,12.73
2018-12-03T20:36:26.493Z,9.37
2018-12-03T20:39:44.782Z,8.33
2018-12-03T20:42:51.514Z,11.50
2018-12-03T20:46:04.138Z,9.83
2018-12-03T20:51:31.016Z,11.17
2018-12-03T20:54:34.233Z,13.83
2018-12-03T20:57:37.346Z,11.60
2018-12-03T21:00:41.637Z,10.83
2018-12-03T21:03:44.832Z,9.97
2018-12-03T21:06:47.991Z,9.47
2018-12-03T21:09:51.190Z,12.10
2018-12-03T21:12:54.418Z,7.07
2018-12-03T21:15:59.930Z,10.87
2018-12-03T21:19:03.206Z,9.53
2018-12-03T21:22:06.344Z,7.83
2018-12-03T21:25:09.702Z,9.77
2018-12-03T21:28:13.055Z,7.00
2018-12-03T21:31:16.444Z,9.17
2018-12-03T21:34:19.690Z,7.20
2018-12-03T21:37:22.912Z,8.00
2018-12-03T21:40:26.118Z,7.40
2018-12-03T21:43:29.350Z,7.85
2018-12-03T21:46:32.500Z,9.30
2018-12-03T21:49:35.811Z,8.67
2018-12-03T21:52:41.000Z,8.17
2018-12-03T21:55:44.110Z,15.87
2018-12-03T21:58:47.333Z,7.35
2018-12-03T22:01:50.558Z,7.70
2018-12-03T22:04:59.926Z,7.37
2018-12-03T22:08:03.723Z,8.03
2018-12-03T22:11:06.972Z,8.10
2018-12-03T22:14:10.242Z,6.27
2018-12-03T22:17:13.533Z,7.10
2018-12-03T22:20:16.720Z,9.40
2018-12-03T22:23:19.931Z,8.03
2018-12-03T22:26:23.379Z,6.07
2018-12-03T22:29:26.554Z,5.53
2018-12-03T22:32:29.695Z,9.07
2018-12-03T22:35:32.774Z,7.63
2018-12-03T22:38:36.051Z,6.37
2018-12-03T22:41:39.442Z,6.60
2018-12-03T22:44:42.853Z,5.37
2018-12-03T22:47:46.122Z,7.00
2018-12-03T22:50:49.226Z,6.17
2018-12-03T22:53:52.554Z,8.63
2018-12-03T22:56:55.732Z,7.97
2018-12-03T22:59:58.864Z,8.27
2018-12-03T23:03:01.958Z,7.90
2018-12-03T23:06:05.139Z,8.50
2018-12-03T23:09:08.933Z,7.40
2018-12-03T23:12:12.019Z,9.47
2018-12-03T23:15:15.195Z,9.00
2018-12-03T23:18:18.324Z,9.80
2018-12-03T23:21:21.615Z,7.20
2018-12-03T23:24:24.719Z,9.13
2018-12-03T23:27:27.829Z,11.37
2018-12-03T23:30:30.901Z,7.80
2018-12-03T23:33:34.212Z,7.47
2018-12-03T23:36:37.307Z,9.93
2018-12-03T23:39:40.403Z,10.23
2018-12-03T23:42:43.570Z,11.90
2018-12-03T23:45:46.789Z,10.90
2018-12-03T23:48:50.781Z,9.23
2018-12-03T23:51:53.986Z,8.93
2018-12-03T23:54:57.086Z,10.73
2018-12-03T23:58:00.198Z,10.07
